sensor_id;sensor_type;location;lat;lon;timestamp;P1;durP1;ratioP1;P2;durP2;ratioP2
6987;SDS011;3534;49.960;8.018;2024-02-28T00:00:12;44.90;;;25.83;;
6987;SDS011;3534;49.960;8.018;2024-02-28T00:02:41;45.77;;;25.43;;
6987;SDS011;3534;49.960;8.018;2024-02-28T00:05:07;40.37;;;24.70;;
6987;SDS011;3534;49.960;8.018;2024-02-28T00:07:34;47.07;;;26.77;;
6987;SDS011;3534;49.960;8.018;2024-02-28T00:10:01;44.40;;;25.37;;
6987;SDS011;3534;49.960;8.018;2024-02-28T00:12:28;47.37;;;26.57;;
6987;SDS011;3534;49.960;8.018;2024-02-28T00:14:55;47.70;;;25.50;;
6987;SDS011;3534;49.960;8.018;2024-02-28T00:17:21;44.87;;;25.57;;
6987;SDS011;3534;49.960;8.018;2024-02-28T00:19:49;51.57;;;28.30;;
6987;SDS011;3534;49.960;8.018;2024-02-28T00:22:16;46.03;;;27.50;;
6987;SDS011;3534;49.960;8.018;2024-02-28T00:24:43;47.37;;;26.20;;
6987;SDS011;3534;49.960;8.018;2024-02-28T00:27:09;50.87;;;28.13;;
6987;SDS011;3534;49.960;8.018;2024-02-28T00:29:36;46.00;;;27.57;;
6987;SDS011;3534;49.960;8.018;2024-02-28T00:32:03;53.13;;;27.20;;
6987;SDS011;3534;49.960;8.018;2024-02-28T00:34:30;41.43;;;26.60;;
6987;SDS011;3534;49.960;8.018;2024-02-28T00:36:58;50.23;;;28.33;;
6987;SDS011;3534;49.960;8.018;2024-02-28T00:39:25;49.73;;;28.90;;
6987;SDS011;3534;49.960;8.018;2024-02-28T00:41:51;53.40;;;29.17;;
6987;SDS011;3534;49.960;8.018;2024-02-28T00:44:19;47.47;;;27.00;;
6987;SDS011;3534;49.960;8.018;2024-02-28T00:46:45;47.33;;;27.03;;
6987;SDS011;3534;49.960;8.018;2024-02-28T00:49:12;53.50;;;29.10;;
6987;SDS011;3534;49.960;8.018;2024-02-28T00:51:39;48.17;;;28.07;;
6987;SDS011;3534;49.960;8.018;2024-02-28T00:54:07;51.77;;;27.53;;
6987;SDS011;3534;49.960;8.018;2024-02-28T00:56:34;56.67;;;28.47;;
6987;SDS011;3534;49.960;8.018;2024-02-28T00:59:00;47.63;;;27.00;;
6987;SDS011;3534;49.960;8.018;2024-02-28T01:01:27;43.27;;;24.80;;
6987;SDS011;3534;49.960;8.018;2024-02-28T01:03:54;50.70;;;27.87;;
6987;SDS011;3534;49.960;8.018;2024-02-28T01:06:21;53.40;;;27.73;;
6987;SDS011;3534;49.960;8.018;2024-02-28T01:08:47;45.90;;;26.17;;
6987;SDS011;3534;49.960;8.018;2024-02-28T01:11:15;51.03;;;26.77;;
6987;SDS011;3534;49.960;8.018;2024-02-28T01:13:42;49.03;;;27.47;;
6987;SDS011;3534;49.960;8.018;2024-02-28T01:16:09;48.97;;;26.90;;
6987;SDS011;3534;49.960;8.018;2024-02-28T01:18:35;50.57;;;27.27;;
6987;SDS011;3534;49.960;8.018;2024-02-28T01:21:02;47.40;;;27.10;;
6987;SDS011;3534;49.960;8.018;2024-02-28T01:23:29;45.30;;;27.13;;
6987;SDS011;3534;49.960;8.018;2024-02-28T01:25:56;46.47;;;27.00;;
6987;SDS011;3534;49.960;8.018;2024-02-28T01:28:24;46.57;;;26.43;;
6987;SDS011;3534;49.960;8.018;2024-02-28T01:30:51;47.37;;;26.43;;
6987;SDS011;3534;49.960;8.018;2024-02-28T01:33:17;47.23;;;26.83;;
6987;SDS011;3534;49.960;8.018;2024-02-28T01:35:44;44.40;;;26.17;;
6987;SDS011;3534;49.960;8.018;2024-02-28T01:38:10;45.43;;;26.10;;
6987;SDS011;3534;49.960;8.018;2024-02-28T01:40:37;46.10;;;25.00;;
6987;SDS011;3534;49.960;8.018;2024-02-28T01:43:04;48.03;;;25.77;;
6987;SDS011;3534;49.960;8.018;2024-02-28T01:45:34;45.50;;;25.80;;
6987;SDS011;3534;49.960;8.018;2024-02-28T01:48:01;47.33;;;25.63;;
6987;SDS011;3534;49.960;8.018;2024-02-28T01:50:30;52.13;;;28.20;;
6987;SDS011;3534;49.960;8.018;2024-02-28T01:52:56;49.90;;;25.87;;
6987;SDS011;3534;49.960;8.018;2024-02-28T01:55:24;53.97;;;26.10;;
6987;SDS011;3534;49.960;8.018;2024-02-28T01:57:51;52.63;;;26.10;;
6987;SDS011;3534;49.960;8.018;2024-02-28T02:00:19;48.70;;;26.53;;
6987;SDS011;3534;49.960;8.018;2024-02-28T02:02:49;46.47;;;25.73;;
6987;SDS011;3534;49.960;8.018;2024-02-28T02:05:15;55.87;;;28.30;;
6987;SDS011;3534;49.960;8.018;2024-02-28T02:07:45;52.60;;;28.10;;
6987;SDS011;3534;49.960;8.018;2024-02-28T02:10:13;48.10;;;26.23;;
6987;SDS011;3534;49.960;8.018;2024-02-28T02:12:40;48.10;;;24.77;;
6987;SDS011;3534;49.960;8.018;2024-02-28T02:15:07;52.53;;;26.53;;
6987;SDS011;3534;49.960;8.018;2024-02-28T02:17:33;48.57;;;25.47;;
6987;SDS011;3534;49.960;8.018;2024-02-28T02:20:02;48.90;;;25.13;;
6987;SDS011;3534;49.960;8.018;2024-02-28T02:22:33;45.40;;;25.90;;
6987;SDS011;3534;49.960;8.018;2024-02-28T02:25:02;42.77;;;25.00;;
6987;SDS011;3534;49.960;8.018;2024-02-28T02:27:29;46.33;;;24.50;;
6987;SDS011;3534;49.960;8.018;2024-02-28T02:29:55;48.93;;;26.60;;
6987;SDS011;3534;49.960;8.018;2024-02-28T02:32:22;49.50;;;25.30;;
6987;SDS011;3534;49.960;8.018;2024-02-28T02:34:49;60.90;;;24.70;;
6987;SDS011;3534;49.960;8.018;2024-02-28T02:37:16;48.83;;;23.83;;
6987;SDS011;3534;49.960;8.018;2024-02-28T02:39:44;45.80;;;23.40;;
6987;SDS011;3534;49.960;8.018;2024-02-28T02:42:10;54.07;;;27.00;;
6987;SDS011;3534;49.960;8.018;2024-02-28T02:44:39;49.43;;;25.93;;
6987;SDS011;3534;49.960;8.018;2024-02-28T02:47:06;50.13;;;26.73;;
6987;SDS011;3534;49.960;8.018;2024-02-28T02:49:33;50.90;;;26.67;;
6987;SDS011;3534;49.960;8.018;2024-02-28T02:51:59;47.47;;;25.30;;
6987;SDS011;3534;49.960;8.018;2024-02-28T02:54:26;50.70;;;26.00;;
6987;SDS011;3534;49.960;8.018;2024-02-28T02:56:54;43.10;;;25.53;;
6987;SDS011;3534;49.960;8.018;2024-02-28T02:59:21;51.03;;;25.93;;
6987;SDS011;3534;49.960;8.018;2024-02-28T03:01:48;50.13;;;24.50;;
6987;SDS011;3534;49.960;8.018;2024-02-28T03:04:15;45.27;;;24.07;;
6987;SDS011;3534;49.960;8.018;2024-02-28T03:06:42;54.37;;;26.50;;
6987;SDS011;3534;49.960;8.018;2024-02-28T03:09:09;50.00;;;25.57;;
6987;SDS011;3534;49.960;8.018;2024-02-28T03:11:35;47.87;;;25.87;;
6987;SDS011;3534;49.960;8.018;2024-02-28T03:14:04;49.30;;;25.10;;
6987;SDS011;3534;49.960;8.018;2024-02-28T03:16:31;49.50;;;25.50;;
6987;SDS011;3534;49.960;8.018;2024-02-28T03:18:57;53.80;;;25.40;;
6987;SDS011;3534;49.960;8.018;2024-02-28T03:21:24;46.30;;;25.03;;
6987;SDS011;3534;49.960;8.018;2024-02-28T03:23:51;55.40;;;26.20;;
6987;SDS011;3534;49.960;8.018;2024-02-28T03:26:17;49.90;;;24.97;;
6987;SDS011;3534;49.960;8.018;2024-02-28T03:28:44;51.77;;;25.70;;
6987;SDS011;3534;49.960;8.018;2024-02-28T03:31:12;51.20;;;25.60;;
6987;SDS011;3534;49.960;8.018;2024-02-28T03:33:39;50.50;;;24.87;;
6987;SDS011;3534;49.960;8.018;2024-02-28T03:36:06;52.80;;;26.30;;
6987;SDS011;3534;49.960;8.018;2024-02-28T03:38:32;48.67;;;25.33;;
6987;SDS011;3534;49.960;8.018;2024-02-28T03:40:59;49.10;;;24.17;;
6987;SDS011;3534;49.960;8.018;2024-02-28T03:43:26;53.70;;;26.20;;
6987;SDS011;3534;49.960;8.018;2024-02-28T03:45:52;53.00;;;25.73;;
6987;SDS011;3534;49.960;8.018;2024-02-28T03:48:20;50.00;;;25.77;;
6987;SDS011;3534;49.960;8.018;2024-02-28T03:50:47;51.47;;;27.50;;
6987;SDS011;3534;49.960;8.018;2024-02-28T03:53:14;49.83;;;24.67;;
6987;SDS011;3534;49.960;8.018;2024-02-28T03:55:40;50.27;;;23.70;;
6987;SDS011;3534;49.960;8.018;2024-02-28T03:58:09;51.83;;;25.10;;
6987;SDS011;3534;49.960;8.018;2024-02-28T04:00:35;49.17;;;26.37;;
6987;SDS011;3534;49.960;8.018;2024-02-28T04:03:02;47.43;;;24.47;;
6987;SDS011;3534;49.960;8.018;2024-02-28T04:05:31;49.40;;;25.07;;
6987;SDS011;3534;49.960;8.018;2024-02-28T04:07:58;46.80;;;23.73;;
6987;SDS011;3534;49.960;8.018;2024-02-28T04:10:25;46.50;;;24.90;;
6987;SDS011;3534;49.960;8.018;2024-02-28T04:12:51;54.50;;;26.43;;
6987;SDS011;3534;49.960;8.018;2024-02-28T04:15:18;48.03;;;23.70;;
6987;SDS011;3534;49.960;8.018;2024-02-28T04:17:45;50.60;;;24.57;;
6987;SDS011;3534;49.960;8.018;2024-02-28T04:20:12;55.60;;;25.17;;
6987;SDS011;3534;49.960;8.018;2024-02-28T04:22:40;52.93;;;26.30;;
6987;SDS011;3534;49.960;8.018;2024-02-28T04:25:08;53.47;;;25.30;;
6987;SDS011;3534;49.960;8.018;2024-02-28T04:27:35;51.10;;;26.23;;
6987;SDS011;3534;49.960;8.018;2024-02-28T04:30:02;51.07;;;24.87;;
6987;SDS011;3534;49.960;8.018;2024-02-28T04:32:29;52.23;;;25.00;;
6987;SDS011;3534;49.960;8.018;2024-02-28T04:34:56;49.50;;;24.37;;
6987;SDS011;3534;49.960;8.018;2024-02-28T04:37:23;55.73;;;26.10;;
6987;SDS011;3534;49.960;8.018;2024-02-28T04:39:51;45.50;;;23.37;;
6987;SDS011;3534;49.960;8.018;2024-02-28T04:42:18;52.10;;;25.87;;
6987;SDS011;3534;49.960;8.018;2024-02-28T04:44:44;55.10;;;26.47;;
6987;SDS011;3534;49.960;8.018;2024-02-28T04:47:11;65.40;;;26.73;;
6987;SDS011;3534;49.960;8.018;2024-02-28T04:49:39;52.13;;;25.90;;
6987;SDS011;3534;49.960;8.018;2024-02-28T04:52:05;55.53;;;26.37;;
6987;SDS011;3534;49.960;8.018;2024-02-28T04:54:32;47.97;;;24.60;;
6987;SDS011;3534;49.960;8.018;2024-02-28T04:57:00;51.00;;;25.43;;
6987;SDS011;3534;49.960;8.018;2024-02-28T04:59:28;51.07;;;26.73;;
6987;SDS011;3534;49.960;8.018;2024-02-28T05:01:55;50.70;;;25.20;;
6987;SDS011;3534;49.960;8.018;2024-02-28T05:04:22;51.87;;;24.43;;
6987;SDS011;3534;49.960;8.018;2024-02-28T05:06:48;48.17;;;25.53;;
6987;SDS011;3534;49.960;8.018;2024-02-28T05:09:15;50.33;;;24.07;;
6987;SDS011;3534;49.960;8.018;2024-02-28T05:11:43;46.40;;;23.60;;
6987;SDS011;3534;49.960;8.018;2024-02-28T05:14:11;50.47;;;26.20;;
6987;SDS011;3534;49.960;8.018;2024-02-28T05:16:38;50.83;;;24.53;;
6987;SDS011;3534;49.960;8.018;2024-02-28T05:19:05;49.20;;;24.77;;
6987;SDS011;3534;49.960;8.018;2024-02-28T05:21:31;50.57;;;26.20;;
6987;SDS011;3534;49.960;8.018;2024-02-28T05:23:59;55.03;;;24.93;;
6987;SDS011;3534;49.960;8.018;2024-02-28T05:26:25;55.20;;;25.37;;
6987;SDS011;3534;49.960;8.018;2024-02-28T05:28:52;50.67;;;25.00;;
6987;SDS011;3534;49.960;8.018;2024-02-28T05:31:20;52.23;;;25.37;;
6987;SDS011;3534;49.960;8.018;2024-02-28T05:33:50;48.53;;;23.13;;
6987;SDS011;3534;49.960;8.018;2024-02-28T05:36:18;44.77;;;23.40;;
6987;SDS011;3534;49.960;8.018;2024-02-28T05:38:44;56.03;;;25.60;;
6987;SDS011;3534;49.960;8.018;2024-02-28T05:41:11;49.00;;;23.37;;
6987;SDS011;3534;49.960;8.018;2024-02-28T05:43:39;55.37;;;26.10;;
6987;SDS011;3534;49.960;8.018;2024-02-28T05:46:06;48.13;;;23.20;;
6987;SDS011;3534;49.960;8.018;2024-02-28T05:48:34;56.67;;;23.17;;
6987;SDS011;3534;49.960;8.018;2024-02-28T05:51:01;55.93;;;24.07;;
6987;SDS011;3534;49.960;8.018;2024-02-28T05:53:29;48.50;;;22.30;;
6987;SDS011;3534;49.960;8.018;2024-02-28T05:55:57;50.97;;;24.70;;
6987;SDS011;3534;49.960;8.018;2024-02-28T05:58:24;51.83;;;23.30;;
6987;SDS011;3534;49.960;8.018;2024-02-28T06:00:51;55.00;;;24.53;;
6987;SDS011;3534;49.960;8.018;2024-02-28T06:03:18;47.57;;;23.20;;
6987;SDS011;3534;49.960;8.018;2024-02-28T06:05:46;46.17;;;20.33;;
6987;SDS011;3534;49.960;8.018;2024-02-28T06:08:13;46.60;;;23.47;;
6987;SDS011;3534;49.960;8.018;2024-02-28T06:10:40;43.87;;;21.63;;
6987;SDS011;3534;49.960;8.018;2024-02-28T06:13:08;45.83;;;21.17;;
6987;SDS011;3534;49.960;8.018;2024-02-28T06:15:34;50.63;;;23.63;;
6987;SDS011;3534;49.960;8.018;2024-02-28T06:18:01;48.33;;;22.40;;
6987;SDS011;3534;49.960;8.018;2024-02-28T06:20:28;46.13;;;22.70;;
6987;SDS011;3534;49.960;8.018;2024-02-28T06:22:56;46.07;;;22.90;;
6987;SDS011;3534;49.960;8.018;2024-02-28T06:25:23;60.23;;;27.30;;
6987;SDS011;3534;49.960;8.018;2024-02-28T06:27:49;48.10;;;24.60;;
6987;SDS011;3534;49.960;8.018;2024-02-28T06:30:16;57.17;;;27.97;;
6987;SDS011;3534;49.960;8.018;2024-02-28T06:32:43;63.47;;;30.70;;
6987;SDS011;3534;49.960;8.018;2024-02-28T06:35:10;69.00;;;31.20;;
6987;SDS011;3534;49.960;8.018;2024-02-28T06:37:37;47.87;;;25.37;;
6987;SDS011;3534;49.960;8.018;2024-02-28T06:40:05;60.30;;;30.10;;
6987;SDS011;3534;49.960;8.018;2024-02-28T06:42:34;46.27;;;25.00;;
6987;SDS011;3534;49.960;8.018;2024-02-28T06:45:01;48.20;;;24.53;;
6987;SDS011;3534;49.960;8.018;2024-02-28T06:47:29;48.40;;;25.63;;
6987;SDS011;3534;49.960;8.018;2024-02-28T06:49:57;54.10;;;26.03;;
6987;SDS011;3534;49.960;8.018;2024-02-28T06:52:24;47.87;;;25.33;;
6987;SDS011;3534;49.960;8.018;2024-02-28T06:54:51;50.83;;;26.73;;
6987;SDS011;3534;49.960;8.018;2024-02-28T06:57:19;52.03;;;25.30;;
6987;SDS011;3534;49.960;8.018;2024-02-28T06:59:45;44.93;;;22.47;;
6987;SDS011;3534;49.960;8.018;2024-02-28T07:02:13;76.77;;;40.80;;
6987;SDS011;3534;49.960;8.018;2024-02-28T07:04:40;66.67;;;34.23;;
6987;SDS011;3534;49.960;8.018;2024-02-28T07:07:07;49.17;;;24.67;;
6987;SDS011;3534;49.960;8.018;2024-02-28T07:09:34;41.87;;;21.90;;
6987;SDS011;3534;49.960;8.018;2024-02-28T07:12:01;46.17;;;23.30;;
6987;SDS011;3534;49.960;8.018;2024-02-28T07:14:29;48.33;;;23.37;;
6987;SDS011;3534;49.960;8.018;2024-02-28T07:16:55;46.33;;;22.43;;
6987;SDS011;3534;49.960;8.018;2024-02-28T07:19:22;52.93;;;25.27;;
6987;SDS011;3534;49.960;8.018;2024-02-28T07:21:49;45.10;;;24.00;;
6987;SDS011;3534;49.960;8.018;2024-02-28T07:24:15;47.40;;;23.30;;
6987;SDS011;3534;49.960;8.018;2024-02-28T07:26:42;46.63;;;23.63;;
6987;SDS011;3534;49.960;8.018;2024-02-28T07:29:09;54.17;;;25.10;;
6987;SDS011;3534;49.960;8.018;2024-02-28T07:31:37;51.73;;;24.77;;
6987;SDS011;3534;49.960;8.018;2024-02-28T07:34:05;50.37;;;25.40;;
6987;SDS011;3534;49.960;8.018;2024-02-28T07:36:33;48.93;;;24.10;;
6987;SDS011;3534;49.960;8.018;2024-02-28T07:39:00;48.57;;;23.23;;
6987;SDS011;3534;49.960;8.018;2024-02-28T07:41:27;50.90;;;24.97;;
6987;SDS011;3534;49.960;8.018;2024-02-28T07:43:54;50.97;;;24.60;;
6987;SDS011;3534;49.960;8.018;2024-02-28T07:46:20;48.77;;;25.20;;
6987;SDS011;3534;49.960;8.018;2024-02-28T07:48:48;55.67;;;25.67;;
6987;SDS011;3534;49.960;8.018;2024-02-28T07:51:15;52.33;;;24.97;;
6987;SDS011;3534;49.960;8.018;2024-02-28T07:53:43;64.87;;;27.77;;
6987;SDS011;3534;49.960;8.018;2024-02-28T07:56:15;84.70;;;34.83;;
6987;SDS011;3534;49.960;8.018;2024-02-28T07:58:42;55.80;;;25.73;;
6987;SDS011;3534;49.960;8.018;2024-02-28T08:01:08;53.40;;;25.23;;
6987;SDS011;3534;49.960;8.018;2024-02-28T08:03:35;60.07;;;24.70;;
6987;SDS011;3534;49.960;8.018;2024-02-28T08:06:04;49.43;;;25.37;;
6987;SDS011;3534;49.960;8.018;2024-02-28T08:08:30;59.87;;;29.93;;
6987;SDS011;3534;49.960;8.018;2024-02-28T08:10:57;61.23;;;26.03;;
6987;SDS011;3534;49.960;8.018;2024-02-28T08:13:24;58.90;;;27.73;;
6987;SDS011;3534;49.960;8.018;2024-02-28T08:15:53;56.30;;;25.60;;
6987;SDS011;3534;49.960;8.018;2024-02-28T08:18:20;51.70;;;25.17;;
6987;SDS011;3534;49.960;8.018;2024-02-28T08:20:46;54.53;;;24.47;;
6987;SDS011;3534;49.960;8.018;2024-02-28T08:23:16;51.17;;;24.63;;
6987;SDS011;3534;49.960;8.018;2024-02-28T08:25:43;48.20;;;23.77;;
6987;SDS011;3534;49.960;8.018;2024-02-28T08:28:09;47.20;;;24.10;;
6987;SDS011;3534;49.960;8.018;2024-02-28T08:30:36;50.80;;;26.37;;
6987;SDS011;3534;49.960;8.018;2024-02-28T08:33:03;48.60;;;24.00;;
6987;SDS011;3534;49.960;8.018;2024-02-28T08:35:32;50.97;;;24.83;;
6987;SDS011;3534;49.960;8.018;2024-02-28T08:37:59;55.73;;;26.60;;
6987;SDS011;3534;49.960;8.018;2024-02-28T08:40:27;47.30;;;23.70;;
6987;SDS011;3534;49.960;8.018;2024-02-28T08:42:53;44.60;;;23.33;;
6987;SDS011;3534;49.960;8.018;2024-02-28T08:45:20;44.57;;;23.27;;
6987;SDS011;3534;49.960;8.018;2024-02-28T08:47:48;53.37;;;24.03;;
6987;SDS011;3534;49.960;8.018;2024-02-28T08:50:14;49.67;;;23.00;;
6987;SDS011;3534;49.960;8.018;2024-02-28T08:52:41;43.60;;;23.77;;
6987;SDS011;3534;49.960;8.018;2024-02-28T08:55:08;45.60;;;23.30;;
6987;SDS011;3534;49.960;8.018;2024-02-28T08:57:36;45.37;;;23.30;;
6987;SDS011;3534;49.960;8.018;2024-02-28T09:00:03;43.73;;;23.20;;
6987;SDS011;3534;49.960;8.018;2024-02-28T09:02:33;44.23;;;23.03;;
6987;SDS011;3534;49.960;8.018;2024-02-28T09:05:02;42.97;;;23.10;;
6987;SDS011;3534;49.960;8.018;2024-02-28T09:07:29;44.00;;;21.93;;
6987;SDS011;3534;49.960;8.018;2024-02-28T09:09:56;50.67;;;26.50;;
6987;SDS011;3534;49.960;8.018;2024-02-28T09:12:22;49.87;;;23.70;;
6987;SDS011;3534;49.960;8.018;2024-02-28T09:14:50;40.73;;;22.10;;
6987;SDS011;3534;49.960;8.018;2024-02-28T09:17:21;46.40;;;23.13;;
6987;SDS011;3534;49.960;8.018;2024-02-28T09:19:48;40.23;;;22.83;;
6987;SDS011;3534;49.960;8.018;2024-02-28T09:22:16;48.03;;;23.67;;
6987;SDS011;3534;49.960;8.018;2024-02-28T09:24:46;50.47;;;23.53;;
6987;SDS011;3534;49.960;8.018;2024-02-28T09:27:13;46.00;;;24.57;;
6987;SDS011;3534;49.960;8.018;2024-02-28T09:29:39;45.87;;;21.90;;
6987;SDS011;3534;49.960;8.018;2024-02-28T09:32:07;42.13;;;22.67;;
6987;SDS011;3534;49.960;8.018;2024-02-28T09:34:35;45.93;;;22.63;;
6987;SDS011;3534;49.960;8.018;2024-02-28T09:37:03;46.50;;;23.07;;
6987;SDS011;3534;49.960;8.018;2024-02-28T09:39:30;47.63;;;23.53;;
6987;SDS011;3534;49.960;8.018;2024-02-28T09:41:57;45.80;;;23.47;;
6987;SDS011;3534;49.960;8.018;2024-02-28T09:44:24;45.73;;;23.40;;
6987;SDS011;3534;49.960;8.018;2024-02-28T09:46:51;45.17;;;22.90;;
6987;SDS011;3534;49.960;8.018;2024-02-28T09:49:20;54.00;;;22.47;;
6987;SDS011;3534;49.960;8.018;2024-02-28T09:51:48;43.50;;;21.63;;
6987;SDS011;3534;49.960;8.018;2024-02-28T09:54:16;43.40;;;22.20;;
6987;SDS011;3534;49.960;8.018;2024-02-28T09:56:43;44.60;;;21.70;;
6987;SDS011;3534;49.960;8.018;2024-02-28T09:59:10;40.47;;;21.60;;
6987;SDS011;3534;49.960;8.018;2024-02-28T10:01:41;46.80;;;22.20;;
6987;SDS011;3534;49.960;8.018;2024-02-28T10:04:08;45.13;;;23.67;;
6987;SDS011;3534;49.960;8.018;2024-02-28T10:06:39;48.27;;;22.67;;
6987;SDS011;3534;49.960;8.018;2024-02-28T10:09:05;43.43;;;23.00;;
6987;SDS011;3534;49.960;8.018;2024-02-28T10:11:32;45.23;;;23.03;;
6987;SDS011;3534;49.960;8.018;2024-02-28T10:14:02;42.27;;;22.73;;
6987;SDS011;3534;49.960;8.018;2024-02-28T10:16:29;45.87;;;22.67;;
6987;SDS011;3534;49.960;8.018;2024-02-28T10:18:55;42.77;;;20.70;;
6987;SDS011;3534;49.960;8.018;2024-02-28T10:21:22;42.40;;;22.10;;
6987;SDS011;3534;49.960;8.018;2024-02-28T10:23:52;44.77;;;21.67;;
6987;SDS011;3534;49.960;8.018;2024-02-28T10:26:19;42.33;;;22.70;;
6987;SDS011;3534;49.960;8.018;2024-02-28T10:28:46;45.30;;;22.10;;
6987;SDS011;3534;49.960;8.018;2024-02-28T10:31:13;38.07;;;20.97;;
6987;SDS011;3534;49.960;8.018;2024-02-28T10:33:41;48.97;;;22.30;;
6987;SDS011;3534;49.960;8.018;2024-02-28T10:36:08;38.90;;;20.40;;
6987;SDS011;3534;49.960;8.018;2024-02-28T10:38:35;44.47;;;22.77;;
6987;SDS011;3534;49.960;8.018;2024-02-28T10:41:04;40.57;;;20.60;;
6987;SDS011;3534;49.960;8.018;2024-02-28T10:43:31;42.30;;;23.17;;
6987;SDS011;3534;49.960;8.018;2024-02-28T10:45:59;43.67;;;21.47;;
6987;SDS011;3534;49.960;8.018;2024-02-28T10:48:27;36.80;;;19.67;;
6987;SDS011;3534;49.960;8.018;2024-02-28T10:50:54;43.00;;;19.97;;
6987;SDS011;3534;49.960;8.018;2024-02-28T10:53:22;40.27;;;19.60;;
6987;SDS011;3534;49.960;8.018;2024-02-28T10:55:59;39.40;;;20.17;;
6987;SDS011;3534;49.960;8.018;2024-02-28T10:58:33;39.77;;;20.30;;
6987;SDS011;3534;49.960;8.018;2024-02-28T11:01:02;37.90;;;19.70;;
6987;SDS011;3534;49.960;8.018;2024-02-28T11:03:30;38.00;;;19.30;;
6987;SDS011;3534;49.960;8.018;2024-02-28T11:05:57;35.23;;;17.63;;
6987;SDS011;3534;49.960;8.018;2024-02-28T11:08:26;39.53;;;17.73;;
6987;SDS011;3534;49.960;8.018;2024-02-28T11:10:56;35.93;;;19.00;;
6987;SDS011;3534;49.960;8.018;2024-02-28T11:13:25;38.57;;;18.67;;
6987;SDS011;3534;49.960;8.018;2024-02-28T11:15:54;41.00;;;19.63;;
6987;SDS011;3534;49.960;8.018;2024-02-28T11:18:21;29.83;;;16.03;;
6987;SDS011;3534;49.960;8.018;2024-02-28T11:20:48;32.00;;;16.00;;
6987;SDS011;3534;49.960;8.018;2024-02-28T11:23:16;32.77;;;17.30;;
6987;SDS011;3534;49.960;8.018;2024-02-28T11:25:43;30.67;;;15.67;;
6987;SDS011;3534;49.960;8.018;2024-02-28T11:28:10;27.50;;;15.47;;
6987;SDS011;3534;49.960;8.018;2024-02-28T11:30:38;31.40;;;16.57;;
6987;SDS011;3534;49.960;8.018;2024-02-28T11:33:06;27.93;;;15.87;;
6987;SDS011;3534;49.960;8.018;2024-02-28T11:35:34;25.67;;;15.20;;
6987;SDS011;3534;49.960;8.018;2024-02-28T11:38:01;26.33;;;14.83;;
6987;SDS011;3534;49.960;8.018;2024-02-28T11:40:28;28.83;;;16.07;;
6987;SDS011;3534;49.960;8.018;2024-02-28T11:42:55;26.63;;;15.37;;
6987;SDS011;3534;49.960;8.018;2024-02-28T11:45:23;30.00;;;16.03;;
6987;SDS011;3534;49.960;8.018;2024-02-28T11:47:51;27.23;;;14.83;;
6987;SDS011;3534;49.960;8.018;2024-02-28T11:50:18;25.90;;;14.20;;
6987;SDS011;3534;49.960;8.018;2024-02-28T11:52:45;24.50;;;13.90;;
6987;SDS011;3534;49.960;8.018;2024-02-28T11:55:12;26.27;;;13.80;;
6987;SDS011;3534;49.960;8.018;2024-02-28T11:57:39;28.47;;;13.13;;
6987;SDS011;3534;49.960;8.018;2024-02-28T12:00:06;21.43;;;12.90;;
6987;SDS011;3534;49.960;8.018;2024-02-28T12:02:35;20.47;;;12.10;;
6987;SDS011;3534;49.960;8.018;2024-02-28T12:05:03;16.87;;;11.10;;
6987;SDS011;3534;49.960;8.018;2024-02-28T12:07:31;18.93;;;12.20;;
6987;SDS011;3534;49.960;8.018;2024-02-28T12:09:58;29.67;;;14.13;;
6987;SDS011;3534;49.960;8.018;2024-02-28T12:12:26;23.77;;;13.50;;
6987;SDS011;3534;49.960;8.018;2024-02-28T12:14:57;20.13;;;12.23;;
6987;SDS011;3534;49.960;8.018;2024-02-28T12:17:25;26.50;;;14.03;;
6987;SDS011;3534;49.960;8.018;2024-02-28T12:19:52;23.60;;;13.87;;
6987;SDS011;3534;49.960;8.018;2024-02-28T12:22:20;20.70;;;12.97;;
6987;SDS011;3534;49.960;8.018;2024-02-28T12:24:47;20.80;;;12.13;;
6987;SDS011;3534;49.960;8.018;2024-02-28T12:27:14;21.13;;;12.17;;
6987;SDS011;3534;49.960;8.018;2024-02-28T12:29:40;16.30;;;10.97;;
6987;SDS011;3534;49.960;8.018;2024-02-28T12:32:07;24.50;;;14.13;;
6987;SDS011;3534;49.960;8.018;2024-02-28T12:34:34;23.10;;;13.40;;
6987;SDS011;3534;49.960;8.018;2024-02-28T12:37:01;18.43;;;11.43;;
6987;SDS011;3534;49.960;8.018;2024-02-28T12:39:30;23.17;;;14.20;;
6987;SDS011;3534;49.960;8.018;2024-02-28T12:41:59;30.40;;;15.50;;
6987;SDS011;3534;49.960;8.018;2024-02-28T12:44:26;24.77;;;15.30;;
6987;SDS011;3534;49.960;8.018;2024-02-28T12:46:52;27.07;;;15.97;;
6987;SDS011;3534;49.960;8.018;2024-02-28T12:49:19;24.00;;;14.33;;
6987;SDS011;3534;49.960;8.018;2024-02-28T12:51:46;23.60;;;15.00;;
6987;SDS011;3534;49.960;8.018;2024-02-28T12:54:14;26.20;;;15.00;;
6987;SDS011;3534;49.960;8.018;2024-02-28T12:56:42;22.57;;;13.93;;
6987;SDS011;3534;49.960;8.018;2024-02-28T12:59:09;23.40;;;13.73;;
6987;SDS011;3534;49.960;8.018;2024-02-28T13:01:37;24.10;;;13.70;;
6987;SDS011;3534;49.960;8.018;2024-02-28T13:04:04;22.10;;;13.50;;
6987;SDS011;3534;49.960;8.018;2024-02-28T13:06:31;19.67;;;12.80;;
6987;SDS011;3534;49.960;8.018;2024-02-28T13:08:58;22.00;;;12.53;;
6987;SDS011;3534;49.960;8.018;2024-02-28T13:11:25;22.03;;;12.80;;
6987;SDS011;3534;49.960;8.018;2024-02-28T13:13:53;19.87;;;12.17;;
6987;SDS011;3534;49.960;8.018;2024-02-28T13:16:20;21.73;;;12.73;;
6987;SDS011;3534;49.960;8.018;2024-02-28T13:18:47;22.83;;;13.63;;
6987;SDS011;3534;49.960;8.018;2024-02-28T13:21:13;23.43;;;14.37;;
6987;SDS011;3534;49.960;8.018;2024-02-28T13:23:40;21.37;;;13.20;;
6987;SDS011;3534;49.960;8.018;2024-02-28T13:26:07;21.97;;;12.97;;
6987;SDS011;3534;49.960;8.018;2024-02-28T13:28:35;23.33;;;13.50;;
6987;SDS011;3534;49.960;8.018;2024-02-28T13:31:03;17.90;;;11.77;;
6987;SDS011;3534;49.960;8.018;2024-02-28T13:33:30;21.70;;;13.47;;
6987;SDS011;3534;49.960;8.018;2024-02-28T13:35:57;21.23;;;12.37;;
6987;SDS011;3534;49.960;8.018;2024-02-28T13:38:24;16.13;;;9.67;;
6987;SDS011;3534;49.960;8.018;2024-02-28T13:40:51;16.37;;;9.33;;
6987;SDS011;3534;49.960;8.018;2024-02-28T13:43:18;12.80;;;8.40;;
6987;SDS011;3534;49.960;8.018;2024-02-28T13:45:46;14.73;;;9.90;;
6987;SDS011;3534;49.960;8.018;2024-02-28T13:48:18;16.13;;;9.73;;
6987;SDS011;3534;49.960;8.018;2024-02-28T13:50:47;12.90;;;8.60;;
6987;SDS011;3534;49.960;8.018;2024-02-28T13:53:14;14.47;;;9.40;;
6987;SDS011;3534;49.960;8.018;2024-02-28T13:55:41;13.60;;;8.90;;
6987;SDS011;3534;49.960;8.018;2024-02-28T13:58:10;11.73;;;7.60;;
6987;SDS011;3534;49.960;8.018;2024-02-28T14:00:37;16.10;;;9.30;;
6987;SDS011;3534;49.960;8.018;2024-02-28T14:03:05;16.00;;;10.07;;
6987;SDS011;3534;49.960;8.018;2024-02-28T14:05:33;12.90;;;8.47;;
6987;SDS011;3534;49.960;8.018;2024-02-28T14:08:00;15.60;;;9.10;;
6987;SDS011;3534;49.960;8.018;2024-02-28T14:10:28;13.33;;;8.70;;
6987;SDS011;3534;49.960;8.018;2024-02-28T14:12:55;12.13;;;7.70;;
6987;SDS011;3534;49.960;8.018;2024-02-28T14:15:23;14.63;;;9.30;;
6987;SDS011;3534;49.960;8.018;2024-02-28T14:17:50;16.40;;;9.10;;
6987;SDS011;3534;49.960;8.018;2024-02-28T14:20:17;12.70;;;8.63;;
6987;SDS011;3534;49.960;8.018;2024-02-28T14:22:45;10.70;;;7.80;;
6987;SDS011;3534;49.960;8.018;2024-02-28T14:25:12;10.80;;;7.70;;
6987;SDS011;3534;49.960;8.018;2024-02-28T14:27:41;9.50;;;6.83;;
6987;SDS011;3534;49.960;8.018;2024-02-28T14:30:10;10.90;;;7.30;;
6987;SDS011;3534;49.960;8.018;2024-02-28T14:32:38;12.83;;;7.87;;
6987;SDS011;3534;49.960;8.018;2024-02-28T14:35:06;15.80;;;8.80;;
6987;SDS011;3534;49.960;8.018;2024-02-28T14:37:34;9.33;;;6.50;;
6987;SDS011;3534;49.960;8.018;2024-02-28T14:40:03;9.47;;;5.77;;
6987;SDS011;3534;49.960;8.018;2024-02-28T14:42:31;10.83;;;6.37;;
6987;SDS011;3534;49.960;8.018;2024-02-28T14:44:58;11.60;;;5.43;;
6987;SDS011;3534;49.960;8.018;2024-02-28T14:47:25;9.60;;;6.60;;